Greenwald, MN (56335)

3:53 PM CST on January 21, 2017 (GMT -0600)
Sauk Centre | | Change Station
Active Advisory: Dense Fog Advisory

Elev 1243 ft 45.71 °N, 94.93 °W | Updated 21 minutes ago

Overcast
Overcast
34 °F
Feels Like 30 °F
N
5
Wind Variable Wind from ENE

Today
High -- | Low -- °F
--% Chance of Precip.
Yesterday
High -- | Low -- °F
Precip. -- in
Pressure 29.42 in
Visibility 0.2 miles
Clouds Overcast 300 ft
Windchill 30 °F
Dew Point 34 °F
Humidity 100%
Rainfall 0.00 in
Snow Depth Not available.
7:51 AM 5:10 PM
Waning Crescent, 32% visible
METAR KD39 212132Z AUTO 06004KT M1/4SM FG OVC003 01/01 A2942 RMK AO2 T00100010
Pressure 29.42 in
Visibility 0.2 miles
Clouds Overcast 300 ft
Windchill 30 °F
Dew Point 34 °F
Humidity 100%
Rainfall 0.00 in
Snow Depth Not available.
7:51 AM 5:10 PM
Waning Crescent, 32% visible
METAR KD39 212132Z AUTO 06004KT M1/4SM FG OVC003 01/01 A2942 RMK AO2 T00100010

Get Your Daily Forecast Email!

Thanks for signing up!

Be on the lookout for a verification email in your inbox.

You'll start receiving the daily forecast at 8 AM.

×

10-Day Weather Forecast

Almanac

Astronomy

Jan. 21, 2017 Rise Set
Actual Time
Civil Twilight
Nautical Twilight
Astronomical Twilight
Moon
Length of Visible Light
Length of Day
Tomorrow will be .
, % of the Moon is Illuminated

Today's Extremes

State Highs State Lows

Community

WunderPhotos

Upload Photos

1,962,540 photos uploaded!

WunderBlog® & News

Nearby

Air Quality

  Air Quality AQ Index Pollutant
Not available.

Snow Depth

Station Depth Elevation

Earthquake Activity

City Distance Mag. Time & Date
Minimum magnitude displayed is 2.5.

Coastal Water Temperatures

Place Temperature

Stations

Nearby Weather Stations

Station Location Temp. Windchill Dew Point Humidity Wind Precip. Elev Updated Type
                   

Watches & Warnings

Dense Fog Advisory
Issued: 2:35 PM CST Jan. 21, 2017 – National Weather Service

... Dense fog advisory remains in effect until noon CST Sunday...

* visibility... areas of dense fog producing visibility one
quarter mile or less.

* Impacts... low visibilities will result in difficult driving
conditions.

Precautionary/preparedness actions...

A dense fog advisory means visibilities will frequently be
reduced to less than one quarter mile. If driving... slow down...
use your headlights... and leave plenty of distance ahead of you.